Home > Products > Valid Products > TAF

000
FTUS46 KEKA 201000 AAA
TAFACV
TAF AMD
KACV 201006Z 2010/2106 00000KT P6SM SKC
     FM201700 32008KT P6SM SKC=



000
FTUS46 KEKA 200800 AAC
TAFCEC
TAF AMD
KCEC 200837Z 2009/2106 00000KT P6SM SKC
      TEMPO 2009/2012 34004KT 2SM BR BKN005
     FM201600 29005KT P6SM SCT015
     FM201800 32008KT P6SM SKC=



000
FTUS46 KEKA 200700 AAB
TAFCEC
TAF AMD
KCEC 200753Z 2008/2106 00000KT 2SM BR BKN014
      TEMPO 2008/2012 34004KT 5SM BR SCT015
     FM201600 29005KT P6SM SCT015
     FM201800 32008KT P6SM SKC=



000
FTUS46 KEKA 200600 AAA
TAFCEC
TAF AMD
KCEC 200608Z 2006/2106 00000KT 6SM BR BKN015
     FM200900 04003KT P6SM SKC
      TEMPO 2009/2012 34004KT 3SM BR BKN003
     FM201800 32008KT P6SM SKC=



000
FTUS46 KEKA 200500
TAFUKI
TAF
KUKI 200537Z 2006/2106 00000KT P6SM SKC
     FM201900 32008G15KT P6SM SKC
     FM210200 04006KT P6SM SKC=



000
FTUS46 KEKA 200500
TAFACV
TAF
KACV 200537Z 2006/2106 05003KT P6SM SKC
     FM200800 03003KT P6SM SKC
      TEMPO 2009/2012 1/2SM FG BKN003
     FM201700 32008KT P6SM SKC=



000
FTUS46 KEKA 200500
TAFCEC
TAF
KCEC 200537Z 2006/2106 03003KT P6SM SCT017
     FM200900 04003KT P6SM SKC
      TEMPO 2009/2012 34004KT 3SM BR BKN003
     FM201800 32008KT P6SM SKC=



000
FTUS46 KEKA 200400 AAA
TAFCEC
TAF AMD
KCEC 200412Z 2004/2024 00000KT P6SM SKC
     FM200600 VRB03KT 3SM BR BKN003
     FM200900 04003KT P6SM SKC
      TEMPO 2009/2012 34004KT 3SM BR BKN003
     FM201800 32008KT P6SM SKC=



000
FTUS46 KEKA 200400 AAB
TAFACV
TAF AMD
KACV 200412Z 2004/2024 00000KT P6SM SKC
     FM200800 03003KT P6SM SKC
      TEMPO 2009/2012 1/2SM FG BKN003
     FM201700 32008KT P6SM SKC=



000
FTUS46 KEKA 200200 AAA
TAFACV
TAF AMD
KACV 200209Z 2002/2024 34009KT P6SM SCT026
     FM200500 00000KT 3SM BR BKN003
     FM200800 03003KT P6SM SKC
      TEMPO 2008/2012 34003KT 1/2SM FG BKN003
     FM201700 32008KT P6SM SKC=



000
FTUS46 KEKA 192300 RRA
TAFCEC
TAF
KCEC 192344Z 2000/2024 17007KT P6SM OVC035
     FM200200 29008KT P6SM SCT035 BKN050
     FM200400 VRB03KT 3SM BR BKN003
     FM200700 04003KT P6SM SKC
      TEMPO 2007/2010 34004KT 3SM BR BKN003
     FM201800 32008KT P6SM SKC=



000
FTUS46 KEKA 192300 RRA
TAFUKI
TAF
KUKI 192344Z 2000/2024 31013G19KT P6SM SKC
     FM200300 VRB04KT P6SM SKC
     FM201900 32008G15KT P6SM SKC=



000
FTUS46 KEKA 192300 RRA
TAFACV
TAF
KACV 192344Z 2000/2024 28004KT P6SM SCT008 BKN025
      TEMPO 2000/2002 BKN008 OVC025
     FM200500 00000KT 3SM BR BKN003
     FM200800 03003KT P6SM SKC
      TEMPO 2008/2012 34003KT 1/2SM FG BKN003
     FM201700 32008KT P6SM SKC=



000
FTUS46 KEKA 192200 AAD
TAFCEC
TAF AMD
KCEC 192218Z 1922/2018 16009KT P6SM VCSH SCT022 OVC035
     FM200200 29008KT P6SM SCT015 SCT040 BKN250
     FM200600 VRB03KT 3SM BR SCT003 SCT250=



000
FTUS46 KEKA 192100 AAB
TAFUKI
TAF AMD
KUKI 192158Z 1922/2018 29011G16KT P6SM SCT250
     FM192300 32012KT P6SM SCT040 BKN250
     FM200300 VRB03KT P6SM FEW250=



000
FTUS46 KEKA 192100 AAC
TAFACV
TAF AMD
KACV 192118Z 1921/2018 23007KT P6SM VCSH SCT007 BKN015 OVC030
      TEMPO 1923/2001 BKN007
     FM200100 36003KT P6SM VCSH SCT015 BKN035 BKN250
     FM200700 VRB03KT 3SM BR SCT003 SCT250
     FM201200 VRB03KT 1/2SM FG BKN003=



000
FTUS46 KEKA 192100 AAC
TAFCEC
TAF AMD
KCEC 192118Z 1921/2018 15012KT P6SM VCSH SCT005 BKN012 OVC025
      TEMPO 1922/1924 5SM BR BKN005 OVC012
     FM200200 29008KT P6SM VCSH SCT015 SCT040 BKN250
     FM200600 VRB03KT 3SM BR SCT003 SCT250=



000
FTUS46 KEKA 191900 AAB
TAFACV
TAF AMD
KACV 191919Z 1919/2018 18005KT 1SM -RA BR SCT010 BKN015 OVC030
     FM191930 21006KT 1SM -RA BR BKN010 OVC015
      TEMPO 1920/1921 BKN008
     FM192100 31009KT P6SM VCSH SCT025 BKN035 BKN080
     FM200100 36003KT P6SM SCT035 BKN250=



000
FTUS46 KEKA 191900 AAB
TAFCEC
TAF AMD
KCEC 191910Z 1919/2018 15012KT 2SM -RA BR SCT005 BKN015 OVC025
      TEMPO 1920/1921 1SM -RA BR BKN005 OVC015
     FM192100 20009KT P6SM VCSH SCT025 BKN040 BKN080
     FM200100 29008KT P6SM SCT040 BKN250=



000
FTUS46 KEKA 191700 AAA
TAFUKI
TAF AMD
KUKI 191742Z 1918/2012 33007KT P6SM SCT250
     FM192300 32012KT P6SM SCT040 BKN250
     FM200300 VRB03KT P6SM FEW250=



000
FTUS46 KEKA 191700 AAA
TAFACV
TAF AMD
KACV 191742Z 1918/2012 19008KT P6SM SCT025 OVC035
     FM191900 20009KT 6SM -RA BKN025 OVC035
      TEMPO 1919/1921 SCT025 OVC035
     FM192100 31009KT P6SM VCSH BKN035 BKN080
     FM200100 36003KT P6SM SCT035 BKN250=



000
FTUS46 KEKA 191700 AAA
TAFCEC
TAF AMD
KCEC 191742Z 1918/2012 15012KT 6SM -RA BR FEW015 BKN025 BKN035
     FM191900 16012KT 3SM -RA BR BKN015 BKN025 OVC035
      TEMPO 1919/1921 6SM -RA BR SCT025 OVC035
     FM192100 20009KT P6SM VCSH SCT025 BKN040 BKN080
     FM200100 29008KT P6SM SCT040 BKN250=



000
FTUS46 KEKA 191600 CCB
TAFCEC
TAF COR
KCEC 191609Z 1916/2012 14011KT P6SM SCT009 BKN045
      TEMPO 1916/1917 6SM BR BKN009
     FM191900 18011KT 6SM -RA BR SCT020 OVC040
     FM192100 32010KT P6SM BKN050
     FM200300 36003KT P6SM SCT035=



000
FTUS46 KEKA 191500 AAB
TAFCEC
TAF AMD
KCEC 191534Z 1916/2012 14011KT P6SM SCT009 BKN045
      TEMPO 1917/1918 6SM BR BKN009
     FM191900 18011KT 6SM -RA BR SCT020 OVC040
     FM192100 32010KT P6SM BKN050
     FM200300 36003KT P6SM SCT035=



000
FTUS46 KEKA 191400 AAA
TAFCEC
TAF AMD
KCEC 191434Z 1915/2012 16008KT P6SM OVC015
     FM191900 18011KT 6SM -RA BR SCT020 OVC040
     FM192100 32010KT P6SM BKN050
     FM200300 36003KT P6SM SCT035=



000
FTUS46 KEKA 191400 AAA
TAFACV
TAF AMD
KACV 191432Z 1915/2012 13003KT P6SM SCT002
     FM191900 30011KT P6SM -RA BKN035 OVC050
     FM192200 32010KT P6SM BKN050
     FM200500 36003KT P6SM SCT035=



000
FTUS46 KEKA 191200 CCA
TAFCEC
TAF COR
KCEC 191204Z 1912/2012 15007KT P6SM BKN009
     FM191400 15008KT P6SM SCT012 BKN025
     FM191800 18011KT 6SM -RA BR BKN035 OVC050
     FM192000 32010KT P6SM BKN050
     FM200300 36003KT P6SM SCT035=



000
FTUS46 KEKA 191100
TAFUKI
TAF
KUKI 191135Z 1912/2012 00000KT P6SM SKC
     FM191800 33007KT P6SM SCT080 BKN200=



000
FTUS46 KEKA 191100
TAFACV
TAF
KACV 191135Z 1912/2012 13003KT 3SM BR OVC002
     FM191600 30009KT P6SM SCT220
     FM191900 30011KT P6SM -RA BKN035 OVC050
     FM192200 32010KT P6SM BKN050
     FM200500 36003KT P6SM SCT035=



000
FTUS46 KEKA 191100
TAFCEC
TAF
KCEC 191135Z 1912/2012 16008KT P6SM FEW009
     FM191400 15008KT P6SM SCT012 BKN025
     FM191800 18011KT 6SM -RA BR BKN035 OVC050
     FM192000 32010KT P6SM BKN050
     FM200300 36003KT P6SM SCT035=



000
FTUS46 KEKA 191000 AAB
TAFACV
TAF AMD
KACV 191005Z 1910/2006 12004KT P6SM OVC009
     FM191700 30009KT P6SM SCT220
     FM192100 30011KT P6SM -RA BKN035 OVC050=



000
FTUS46 KEKA 191000 AAB
TAFCEC
TAF AMD
KCEC 191003Z 1910/2006 15008KT P6SM OVC008
     FM191400 15008KT P6SM SCT012 BKN025
     FM191800 18011KT 6SM -RA BR BKN035 OVC050=



000
FTUS46 KEKA 190700 AAA
TAFACV
TAF AMD
KACV 190714Z 1907/2006 11004KT P6SM BKN004
     FM190800 11004KT 3SM BR OVC004
      TEMPO 1910/1914 4SM BR SCT007 BKN012
     FM191700 30009KT P6SM SCT220
     FM192100 30011KT P6SM -RA BKN035 OVC050=



000
FTUS46 KEKA 190600 AAA
TAFCEC
TAF AMD
KCEC 190649Z 1907/2006 00000KT 2SM BR OVC004
     FM191400 15008KT P6SM SCT012 BKN025
     FM191800 18011KT 6SM -RA BR BKN035 OVC050=



000
FTUS46 KEKA 190500
TAFACV
TAF
KACV 190531Z 1906/2006 12004KT P6SM SKC
     FM190800 11004KT P6SM BKN007 OVC012
      TEMPO 1910/1914 4SM BR SCT007 BKN012
     FM191700 30009KT P6SM SCT220
     FM192100 30011KT P6SM -RA BKN035 OVC050=



000
FTUS46 KEKA 190500
TAFUKI
TAF
KUKI 190531Z 1906/2006 30003KT P6SM SKC
     FM191800 33007KT P6SM SCT080 BKN200=



000
FTUS46 KEKA 190500
TAFCEC
TAF
KCEC 190531Z 1906/2006 13003KT P6SM FEW008
     FM190700 17004KT 4SM BR BKN007 OVC012
     FM191000 16003KT 2SM BR OVC007
     FM191400 15008KT P6SM SCT012 BKN025
     FM191800 18011KT 6SM -RA BR BKN035 OVC050=



000
FTUS46 KEKA 182300 RRA
TAFCEC
TAF
KCEC 182341Z 1900/1924 31007KT P6SM SKC
     FM190500 16004KT P6SM FEW015
     FM190900 17004KT P6SM OVC012
     FM191400 15008KT P6SM -RA SCT012 BKN025
     FM191800 18011KT 6SM -RA BR BKN035 OVC050=



000
FTUS46 KEKA 182300 RRA
TAFUKI
TAF
KUKI 182341Z 1900/1924 34010KT P6SM SKC
     FM190300 00000KT P6SM FEW250
     FM191800 33007KT P6SM SCT080 BKN200=



000
FTUS46 KEKA 182300 RRA
TAFACV
TAF
KACV 182341Z 1900/1924 31010KT P6SM SKC
     FM190800 11004KT P6SM FEW015
      TEMPO 1910/1914 BKN012
     FM191700 30009KT P6SM SCT220
     FM192100 30011KT P6SM -RA BKN035 OVC050=



000
FTUS46 KEKA 181700
TAFUKI
TAF
KUKI 181734Z 1818/1918 32005KT P6SM SKC
     FM190400 00000KT P6SM SKC=



000
FTUS46 KEKA 181700
TAFACV
TAF
KACV 181734Z 1818/1918 29006KT P6SM FEW007
     FM181900 32011KT P6SM SKC
     FM190200 35005KT P6SM SKC
     FM190500 11004KT P6SM FEW015=



000
FTUS46 KEKA 181700
TAFCEC
TAF
KCEC 181734Z 1818/1918 32010KT P6SM SKC
     FM190100 33004KT P6SM SKC
     FM190500 16004KT P6SM FEW015=



000
FTUS46 KEKA 181600 AAA
TAFACV
TAF AMD
KACV 181601Z 1816/1912 VRB03KT P6SM FEW004
     FM181900 34010KT P6SM SKC
     FM190200 02003KT P6SM SKC
     FM190900 11003KT P6SM FEW015=



000
FTUS46 KEKA 181100
TAFACV
TAF
KACV 181134Z 1812/1912 VRB03KT 6SM BR OVC005
     FM181700 VRB03KT P6SM FEW008
     FM181900 34010KT P6SM SKC
     FM190200 02003KT P6SM SKC
     FM190900 11003KT P6SM FEW015=



000
FTUS46 KEKA 181100
TAFCEC
TAF
KCEC 181134Z 1812/1912 35005KT 1 1/2SM BR SCT002
     FM181600 33010KT P6SM SKC
     FM190100 33004KT P6SM SKC
     FM190800 16004KT P6SM FEW015=



000
FTUS46 KEKA 181100
TAFUKI
TAF
KUKI 181134Z 1812/1912 00000KT P6SM SKC
     FM181900 30009KT P6SM SKC
     FM190200 VRB03KT P6SM SKC
     FM190600 00000KT P6SM SKC=



000
FTUS46 KEKA 181000 AAA
TAFCEC
TAF AMD
KCEC 181018Z 1810/1906 35005KT P6SM OVC012
     FM181800 33010KT P6SM SKC=



000
FTUS46 KEKA 180500
TAFUKI
TAF
KUKI 180535Z 1806/1906 30008KT P6SM SKC
     FM181900 35005KT P6SM SKC=



000
FTUS46 KEKA 180500
TAFCEC
TAF
KCEC 180535Z 1806/1906 00000KT 6SM BR FEW010 BKN025 OVC035
     FM180700 VRB03KT 5SM BR SCT008 BKN012
     FM180800 00000KT 3SM BR OVC008
     FM181600 35005KT P6SM OVC012
     FM181800 33010KT P6SM SKC=



000
FTUS46 KEKA 180500
TAFACV
TAF
KACV 180535Z 1806/1906 34006KT P6SM SCT004 BKN035
     FM180900 00000KT 4SM BR OVC008
     FM181600 VRB03KT P6SM OVC012
     FM181900 34010KT P6SM SKC=



000
FTUS46 KEKA 180300 AAB
TAFCEC
TAF AMD
KCEC 180343Z 1804/1824 00000KT 5SM BR FEW010 OVC035
     FM180600 VRB03KT P6SM SCT008 BKN012
     FM180900 00000KT 4SM BR OVC008
     FM181600 35005KT P6SM OVC012
     FM181800 33010KT P6SM SKC=



000
FTUS46 KEKA 180300 AAB
TAFACV
TAF AMD
KACV 180343Z 1804/1824 34006KT P6SM SCT004 BKN035
     FM180700 VRB03KT P6SM SCT008 BKN025
     FM181000 00000KT 4SM BR OVC008
     FM181600 VRB03KT P6SM OVC012
     FM181900 34010KT P6SM SKC=



000
FTUS46 KEKA 180300 AAA
TAFUKI
TAF AMD
KUKI 180343Z 1804/1824 30008KT P6SM SKC
     FM181900 35005KT P6SM SKC=



000
FTUS46 KEKA 180200 AAA
TAFACV
TAF AMD
KACV 180236Z 1803/1824 34005KT P6SM OVC002
     FM180500 VRB04KT P6SM OVC006
     FM180800 VRB03KT P6SM SCT008 BKN025
     FM181200 00000KT 4SM BR OVC008
     FM181600 VRB03KT P6SM OVC012
     FM181900 34010KT P6SM SKC=



000
FTUS46 KEKA 180200 AAA
TAFCEC
TAF AMD
KCEC 180236Z 1803/1824 VRB03KT P6SM OVC008
     FM180600 VRB03KT P6SM SCT008 BKN035
     FM181000 00000KT 4SM BR OVC008
     FM181600 35005KT P6SM OVC012
     FM181800 33010KT P6SM SKC=



000
FTUS46 KEKA 172300
TAFUKI
TAF
KUKI 172336Z 1800/1824 30014G24KT P6SM SCT200
     FM180400 35005KT P6SM SKC=



000
FTUS46 KEKA 172300
TAFCEC
TAF
KCEC 172336Z 1800/1824 20005KT P6SM -RA OVC004
     FM180300 VRB03KT P6SM SCT006 OVC012
     FM181000 VRB03KT 4SM BR OVC008
     FM181600 35005KT P6SM OVC012
     FM181800 33010KT P6SM SKC=



000
FTUS46 KEKA 172300
TAFACV
TAF
KACV 172336Z 1800/1824 30005KT P6SM -RA SCT002 OVC035
      TEMPO 1800/1804 1 1/2SM -RA BR BKN002 OVC007
     FM180700 VRB03KT P6SM OVC012
     FM181200 VRB03KT 4SM BR OVC008
     FM181600 VRB03KT P6SM OVC012
     FM181900 34010KT P6SM SKC=



000
FTUS46 KEKA 172200 AAD
TAFACV
TAF AMD
KACV 172215Z 1722/1818 34010KT 1SM -RA BR SCT005 OVC012
     FM180000 35005KT 4SM -RA BR BKN012 OVC035
     FM180300 35005KT P6SM -RA SCT012 OVC035
     FM180600 34004KT P6SM OVC012
     FM181200 VRB03KT 4SM BR OVC008
     FM181600 VRB03KT P6SM OVC012=



000
FTUS46 KEKA 172200 AAC
TAFACV
TAF AMD
KACV 172208Z 1722/1818 34010KT 1SM -RA BR SCT005 OVC012
     FM180000 35005KT 4SM -RA BR BKN012 OVC035
     FM180300 35005KT P6SM -RA SCT012 OVC035
     FM180600 34004KT P6SM OVC012
     FM181200 VRB03KT 4SM BR OVC008
     FM181600 VRB03KT P6SM OVC012=



000
FTUS46 KEKA 172200 AAC
TAFCEC
TAF AMD
KCEC 172204Z 1722/1818 15005KT P6SM -RA SCT005 OVC040
     FM180600 VRB03KT P6SM OVC012
     FM181000 VRB03KT 4SM BR OVC008
     FM181600 35005KT P6SM OVC012=



000
FTUS46 KEKA 172100 AAB
TAFACV
TAF AMD
KACV 172108Z 1721/1818 33008KT P6SM SCT015 OVC035
     FM172200 34010KT P6SM -RA SCT008 OVC015
     FM180300 35005KT P6SM SCT015 OVC035
     FM180600 34004KT P6SM OVC012
     FM181200 VRB03KT 4SM BR OVC008
     FM181600 VRB03KT P6SM OVC012=



000
FTUS46 KEKA 172100 AAB
TAFCEC
TAF AMD
KCEC 172104Z 1721/1818 28008KT P6SM -RA BKN005 OVC008
      TEMPO 1721/1723 SCT005 OVC008
     FM172300 32006KT P6SM SCT008 OVC035
     FM180600 VRB03KT P6SM OVC012
     FM181000 VRB03KT 4SM BR OVC008
     FM181600 35005KT P6SM OVC012=



000
FTUS46 KEKA 172000 AAA
TAFUKI
TAF AMD
KUKI 172059Z 1721/1818 30014G22KT P6SM SCT200
     FM180400 VRB03KT P6SM SKC=



000
FTUS46 KEKA 171900 AAA
TAFACV
TAF AMD
KACV 171906Z 1719/1818 32006KT P6SM BKN025 OVC035
     FM172300 34010KT P6SM -RA SCT025 OVC035
     FM180600 34004KT P6SM OVC012
     FM181200 VRB03KT 4SM BR OVC008
     FM181600 VRB03KT P6SM OVC008=



000
FTUS46 KEKA 171900 AAA
TAFCEC
TAF AMD
KCEC 171902Z 1719/1818 25008KT P6SM BKN008 OVC015
     FM172100 28008KT P6SM -RA SCT015 OVC025
     FM180400 VRB03KT P6SM OVC012
     FM181000 VRB03KT 4SM BR OVC008
     FM181600 35005KT P6SM OVC012=



000
FTUS46 KEKA 171700 RRA
TAFUKI
TAF
KUKI 171741Z 1718/1818 33008KT P6SM SCT200
     FM172200 32012KT P6SM SCT080 BKN200
     FM180400 VRB03KT P6SM SKC=



000
FTUS46 KEKA 171700 RRA
TAFCEC
TAF
KCEC 171741Z 1718/1818 21005KT P6SM SCT004 BKN015 OVC025
     FM171900 29010KT P6SM SCT015 OVC025
     FM172000 29010KT P6SM SCT025 OVC035
     FM172300 28008KT P6SM -RA SCT025 OVC035
     FM180600 VRB03KT P6SM OVC012
     FM181200 VRB03KT 4SM BR OVC008
     FM181600 35005KT P6SM OVC012=



000
FTUS46 KEKA 171700 RRA
TAFACV
TAF
KACV 171741Z 1718/1818 32006KT P6SM SCT015 BKN035
     FM172300 34010KT P6SM -RA SCT025 OVC035
     FM180600 34004KT P6SM OVC012
     FM181200 VRB03KT 4SM BR OVC008
     FM181600 VRB03KT P6SM OVC008=



000
FTUS46 KEKA 171600 AAA
TAFACV
TAF AMD
KACV 171601Z 1716/1812 07003KT P6SM BKN015 OVC025
     FM171800 32006KT P6SM SCT015 OVC025
     FM172200 34010KT P6SM OVC035
      TEMPO 1722/1802 -RA SCT015 OVC030
     FM180300 34004KT P6SM SCT012 BKN025=



000
FTUS46 KEKA 171100
TAFACV
TAF
KACV 171130Z 1712/1812 VRB03KT P6SM OVC007
      TEMPO 1712/1716 VRB03KT 4SM BR OVC005
     FM171800 32006KT P6SM BKN070
     FM172200 34010KT P6SM OVC050
      TEMPO 1722/1802 -RA SCT015 OVC030
     FM180300 34004KT P6SM SCT012 BKN025=



000
FTUS46 KEKA 171100
TAFCEC
TAF
KCEC 171130Z 1712/1812 00000KT P6SM BKN050
      TEMPO 1712/1716 VRB03KT 3SM BR OVC003
     FM171600 VRB06KT 4SM BR OVC004
     FM171800 27008KT P6SM BKN050
     FM172100 28006KT P6SM OVC050
      TEMPO 1802/1806 VRB06KT 3SM -DZ BR BKN020
     FM180600 VRB03KT P6SM SCT007 BKN012=



000
FTUS46 KEKA 171100
TAFUKI
TAF
KUKI 171130Z 1712/1812 00000KT P6SM SKC
     FM171800 34005KT P6SM SCT200
     FM172100 32010G15KT P6SM SCT080 BKN200=



    US Dept of Commerce
    National Oceanic and Atmospheric Administration
    National Weather Service
    1325 East West Highway
    Silver Spring, MD 20910
    Page Author: NWS Internet Services Team
Disclaimer
Information Quality
Credits
Glossary
Privacy Policy
Freedom of Information Act (FOIA)
About Us
Career Opportunities